Bert Mooney Airport

Airport
ICAO code: 
KBTM
Summary
ICAO Region: 
NAM
Territory: 
Location: 
Butte, Montana,
Coordinates: 
Aerial View: 
45° 57' 16.999" N, 112° 29' 49.999" W
Airport CFIT: 
Altimeter Temperature Error Correction
Airport RE: 
Hot and High Operations
Airport WX: 
Mountain Waves
Metar
Observation
KBTM 021553Z AUTO 24012G19KT 10SM FEW060 BKN075 13/01 A3005 RMK AO2 SLP142 T01280011
Station
Butte, Bert Mooney Airport
Date/Time
2021-12-02 15:53:00
Wind direction
240°
Wind speed
12 kts
Lowest cloud amount
few clouds
Temperature
12.8°C
Dew point
1.1°C
Humidity
44%
Weather condition
n/a

Description

Bert Mooney Airport is a public use airport located 6 km southeast of the central business district of Butte, a city in Silver Bow County, Montana.

Climatology

Cold Semi-arid climate (Köppen climate classification BSk). - Hot, sometimes extremely hot summers and cold, sometimes very cold winters. Some snowfall during the winter. Areas featuring cold semi-arid climates are sometimes subject to major temperature swings during a 24 hour period..

Runways

Designator Length Width Surface Rops
11/29 1554 23 ASP Yes/Yes
2/20 1690 23 ASP No/No
15/33 2744 46 ASP Yes/Yes
Airport map: 
Aerial View: 

SKYbrary Partners:

Safety knowledge contributed by: